Terminal Aerodrome Forecast
Issued by NWS Charleston, WV

Current Version | Previous Version | Graphics & Text | Print | Product List | Glossary On
Versions: 1 2 3 4 5 6 7 8 9 10 11 12 13 14 15 16 17 18 19 20
000
FTUS41 KRLX 232300
TAFHTS
TAF
KHTS 232331Z 2400/2424 32005KT P6SM SCT080
     FM240500 01004KT P6SM OVC015
     FM241400 36006KT P6SM BKN020
     FM241700 34006KT P6SM BKN035
     FM242000 36006KT P6SM SCT045=

USA.gov is the U.S. government's official web portal to all federal, state and local government web resources and services.